• Join FlightAware (Why Join?)
  • Login
  • US Flag 
05:08PM EDT


 

Airport Tracker/Info


-or-


 

Live Flight TrackerFlight Track Log ✈ FLG3785 ✈ 09-May-2013 ✈ KCLE - KMSP

Flight Track Log - Related Links

Times and Time Zones

All times are in EDT time to prevent confusion due to time zone crossing. See the FLG3785 flight status page for this flight to view local times or setup timezone preferences in your user account.

Time Position Orientation Groundspeed Altitude Reporting Facility
EDT Latitude Longitude Course Direction KTS MPH feet Rate Location/Type
11:30AM 41.4153 -81.8403 252° West 154 177 1,500  Level Cleveland Center
11:30AM 41.4361 -81.8406 359° North 152 175 2,500 1,860 Climbing Cleveland Center
11:31AM 41.4861 -81.8500 352° North 210 242 4,200 1,500 Climbing Cleveland Center
11:32AM 41.4958 -81.9000 285° West 252 290 5,000 1,800 Climbing Cleveland Center
11:33AM 41.3315 -82.3739 252° West  Level FlightAware Approximate
11:33AM 41.4719 -81.9908 251° West 271 312 7,400  Level Cleveland Center
11:34AM 41.3000 -82.5017 270° West  Level FlightAware Approximate
11:34AM 41.4436 -82.0872 249° West 281 323 10,100  Level Cleveland Center
11:35AM 41.2875 -82.6335 252° West  Level FlightAware Approximate
11:35AM 41.4086 -82.1944 247° West 308 354 11,400  Level Cleveland Center
11:36AM 41.3736 -82.3097 248° West 334 384 13,900 1,980 Climbing Cleveland Center
11:37AM 41.3342 -82.4278 246° West 340 391 15,400 1,500 Climbing Cleveland Center
11:38AM 41.3006 -82.5678 252° West 351 404 16,900 1,440 Climbing Cleveland Center
11:39AM 41.2836 -82.7053 261° West 371 427 18,300 1,440 Climbing Cleveland Center
11:40AM 41.2644 -82.8372 259° West 371 427 19,800 1,380 Climbing Cleveland Center
11:41AM 41.2469 -82.9747 260° West 376 433 21,100 1,140 Climbing Cleveland Center
11:42AM 41.2756 -83.1058 286° West 363 418 22,100 900 Climbing Cleveland Center
11:43AM 41.2911 -83.2472 278° West 376 433 23,000 900 Climbing Cleveland Center
11:44AM 41.3022 -83.3858 276° West 381 438 24,000 840 Climbing Cleveland Center
11:45AM 41.3156 -83.5164 278° West 393 452 24,700 780 Climbing Cleveland Center
11:46AM 41.3344 -83.6750 279° West 393 452 25,600 720 Climbing Cleveland Center
11:47AM 41.3450 -83.8194 276° West 393 452 26,200 600 Climbing Cleveland Center
11:48AM 41.3617 -83.9669 279° West 399 459 26,800 600 Climbing Cleveland Center
11:49AM 41.3758 -84.1142 277° West 404 465 27,400 540 Climbing Cleveland Center
11:50AM 41.3858 -84.2644 275° West 410 472 27,900 540 Climbing Cleveland Center
11:51AM 41.3994 -84.4175 277° West 410 472 28,500 540 Climbing Cleveland Center
11:53AM 41.4239 -84.7178 276° West 408 470 29,600 300 Climbing Chicago Center
11:54AM 41.4364 -84.8661 276° West 405 466 29,500 -480 Descending Chicago Center
11:55AM 41.4483 -85.0167 276° West 407 468 28,700 -780 Descending Chicago Center
11:56AM 41.4597 -85.1611 276° West 394 453 28,000 -360 Descending Chicago Center
11:57AM 41.4725 -85.3406 275° West 399 459 28,000  Level Chicago Center
11:58AM 41.4847 -85.4936 276° West 405 466 28,000  Level Chicago Center
11:59AM 41.5256 -85.6317 292° West 405 466 28,000  Level Chicago Center
12:00PM 41.5983 -85.7492 310° West 408 470 28,000 -360 Level Chicago Center
12:01PM 41.6708 -85.8664 310° West 408 470 27,300 -1,020 Descending Chicago Center
12:02PM 41.7419 -85.9789 310° West 400 460 26,000 -660 Descending Chicago Center
12:04PM 41.8100 -86.0878 310° West 384 442 26,000  Level Chicago Center
12:05PM 41.8769 -86.1967 310° West 379 436 26,000  Level Chicago Center
12:06PM 41.9450 -86.3078 309° West 384 442 26,000  Level Chicago Center
12:07PM 42.0264 -86.4408 309° West 385 443 26,000  Level Chicago Center
12:08PM 42.0967 -86.5536 310° West 391 450 26,000  Level Chicago Center
12:09PM 42.1636 -86.6675 308° West 390 449 26,000  Level Chicago Center
12:10PM 42.2314 -86.7775 310° West 397 457 26,000  Level Chicago Center
12:11PM 42.3167 -86.9217 309° West 412 474 26,000  Level Chicago Center
12:12PM 42.3894 -87.0425 309° West 418 481 26,000  Level Chicago Center
12:13PM 42.4619 -87.1653 309° West 421 484 26,000  Level Chicago Center
12:14PM 42.5358 -87.2897 309° West 426 490 26,000  Level Chicago Center
12:15PM 42.6150 -87.4217 309° West 429 494 26,000  Level Chicago Center
12:16PM 42.6892 -87.5492 308° West 430 495 26,000  Level Chicago Center
12:17PM 42.7644 -87.6772 309° West 432 497 26,000  Level Chicago Center
12:18PM 42.8478 -87.8200 309° West 433 498 26,000  Level Chicago Center
12:19PM 42.9286 -87.9614 308° West 434 499 26,000  Level Chicago Center
12:20PM 43.0044 -88.0906 309° West 435 501 26,000  Level Chicago Center
12:21PM 43.0786 -88.2211 308° West 436 502 26,000  Level Chicago Center
12:22PM 43.1553 -88.3517 309° West 440 506 26,000  Level Chicago Center
12:23PM 43.2336 -88.4864 309° West 440 506 26,000  Level Chicago Center
12:24PM 43.3111 -88.6169 309° West 442 509 26,000  Level Chicago Center
12:25PM 43.3867 -88.7492 308° West 441 507 26,000  Level Chicago Center
12:26PM 43.4772 -88.9011 309° West 454 522 26,000  Level Chicago Center
12:27PM 43.5522 -89.0331 308° West 446 513 26,000  Level Chicago Center
12:28PM 43.6294 -89.1650 309° West 446 513 26,000  Level Chicago Center
12:29PM 43.6686 -89.2397 306° West 441 507 26,000  Level Minneapolis Center
12:30PM 43.7481 -89.3769 309° West 452 520 26,000  Level Minneapolis Center
12:31PM 43.8250 -89.5117 308° West 451 519 26,000  Level Minneapolis Center
12:32PM 43.9153 -89.6736 308° West 449 517 26,000  Level Minneapolis Center
12:33PM 43.9908 -89.8089 308° West 449 517 26,000  Level Minneapolis Center
12:34PM 44.0658 -89.9439 308° West 447 514 26,000  Level Minneapolis Center
12:35PM 44.1408 -90.0797 308° West 448 516 26,000  Level Minneapolis Center
12:36PM 44.2158 -90.2150 308° West 446 513 26,000  Level Minneapolis Center
12:37PM 44.3061 -90.3797 307° West 450 518 26,000  Level Minneapolis Center
12:38PM 44.3817 -90.5175 308° West 453 521 26,000  Level Minneapolis Center
12:39PM 44.4469 -90.6497 305° West 444 511 26,000  Level Minneapolis Center
12:40PM 44.5169 -90.8356 298° West 450 518 26,000  Level Minneapolis Center
12:41PM 44.5756 -90.9878 298° West 447 514 26,000  Level Minneapolis Center
12:42PM 44.6333 -91.1461 297° West 452 520 26,000 -660 Level Minneapolis Center
12:43PM 44.6944 -91.3053 298° West 462 532 24,700 -1,860 Descending Minneapolis Center
12:44PM 44.7517 -91.4625 297° West 457 526 22,200 -2,460 Descending Minneapolis Center
12:45PM 44.8058 -91.6097 297° West 437 503 19,700 -2,640 Descending Minneapolis Center
12:46PM 44.8686 -91.7831 297° West 421 484 16,800 -2,640 Descending Minneapolis Center
12:47PM 44.9186 -91.9219 297° West 402 463 14,300 -2,460 Descending Minneapolis Center
12:48PM 44.9669 -92.0564 297° West 388 447 11,800 -1,620 Descending Minneapolis Center
12:49PM 45.0122 -92.1875 296° West 377 434 11,000 -420 Descending Minneapolis Center
12:50PM 45.0422 -92.3272 287° West 388 447 11,000 -480 Level Minneapolis Center
12:52PM 44.9928 -92.4672 244° Southwest 327 376 10,100 -1,380 Descending Minneapolis Center
12:53PM 44.9483 -92.5619 236° Southwest 294 338 8,200 -1,500 Descending Minneapolis Center
12:54PM 44.9036 -92.6553 236° Southwest 289 333 7,000 -600 Descending Minneapolis Center
12:55PM 44.8622 -92.7400 235° Southwest 264 304 7,000 -360 Level Minneapolis Center
12:56PM 44.8169 -92.8083 227° Southwest 243 280 6,300 -960 Descending Minneapolis Center
12:57PM 44.7850 -92.8833 239° Southwest 230 265 5,100 -1,020 Descending Minneapolis Center
12:58PM 44.7903 -92.9906 274° West 233 268 4,300 -780 Descending Minneapolis Center